Saturday, May 26, 2018, 8:13 AM EDT
Back to Local

KUNV, State College, University Park Airport

Location: State College, PA, United States Lat: 40.85
Local Time: 8:13 AM EDT (12:13 GMT) Lon: -77.85
Time Zone: US/Eastern Elev: 1240 ft

Show me the last for .
Show Decoded

2018-05-26 07:53 METAR KUNV 261153Z 00000KT 10SM FEW090 20/18 A2990 =
2018-05-26 06:53 METAR KUNV 261053Z 00000KT 10SM FEW060 18/17 A2989 =
2018-05-26 05:53 METAR KUNV 260953Z 00000KT 10SM BKN055 OVC070 18/17 A2988 =
2018-05-26 05:35 METAR KUNV 260935Z AUTO 00000KT 10SM BKN070 BKN075 18/17 A2988 RMK AO2 T01810166
                 =
2018-05-26 05:15 METAR KUNV 260915Z AUTO 18003KT 10SM SCT060 SCT120 18/16 A2988 RMK AO2 LTG DSNT
                 SE T01830164 =
2018-05-26 04:55 METAR KUNV 260855Z AUTO 22005KT 10SM VCTS SCT050 SCT120 18/16 A2988 RMK AO2 LTG
                 DSNT S T01840162 =
2018-05-26 04:35 METAR KUNV 260835Z AUTO 20007KT 10SM TS SCT050 SCT060 BKN070 18/16 A2988 RMK AO2
                 LTG DSNT S AND SW T01810162 =
2018-05-26 04:15 METAR KUNV 260815Z AUTO 00000KT 10SM TS SCT060 BKN080 18/16 A2986 RMK AO2 LTG
                 DSNT SW T01800160 =
2018-05-26 04:00 METAR KUNV 260800Z AUTO 00000KT 10SM TS SCT060 BKN080 18/16 A2986 RMK AO2 LTG
                 DSNT SW T01770159 =
2018-05-26 03:35 METAR KUNV 260735Z AUTO 00000KT 10SM CLR 18/16 A2986 RMK AO2 LTG DSNT SW
                 T01800160 =
2018-05-26 03:15 METAR KUNV 260715Z AUTO 00000KT 10SM CLR 18/16 A2987 RMK AO2 T01840160 =
2018-05-26 02:55 METAR KUNV 260655Z AUTO 00000KT 10SM CLR 19/16 A2987 RMK AO2 T01850160 =
2018-05-26 02:35 METAR KUNV 260635Z AUTO 00000KT 10SM CLR 19/16 A2988 RMK AO2 LTG DSNT SW
                 T01870160 =
2018-05-26 02:15 METAR KUNV 260615Z AUTO 10SM CLR 19/16 A2988 RMK AO2 T01860161 =
2018-05-26 01:55 METAR KUNV 260555Z AUTO 00000KT 10SM CLR 19/16 A2988 RMK AO2 T01880160 10266
                 20186 =
2018-05-26 01:35 METAR KUNV 260535Z AUTO 00000KT 10SM CLR 20/16 A2988 RMK AO2 T01950160 =
2018-05-26 01:15 METAR KUNV 260515Z AUTO 00000KT 10SM CLR 19/16 A2989 RMK AO2 T01890160 =
2018-05-26 00:55 METAR KUNV 260455Z AUTO 10SM CLR 20/16 A2989 RMK AO2 T01990158 =
2018-05-26 00:35 METAR KUNV 260435Z AUTO 00000KT 10SM CLR 21/16 A2989 RMK AO2 T02050160 =
2018-05-26 00:15 METAR KUNV 260415Z AUTO 00000KT 10SM CLR 21/16 A2989 RMK AO2 T02050159 =
2018-05-25 23:55 METAR KUNV 260355Z AUTO 00000KT 10SM CLR 20/16 A2989 RMK AO2 T02020159 402960131
                 =
2018-05-25 23:35 METAR KUNV 260335Z AUTO 00000KT 10SM CLR 22/16 A2990 RMK AO2 T02160159 =
2018-05-25 23:15 METAR KUNV 260315Z AUTO 00000KT 10SM CLR 21/16 A2990 RMK AO2 T02110157 =
2018-05-25 22:55 METAR KUNV 260255Z AUTO 19003KT 10SM CLR 21/16 A2990 RMK AO2 T02130155 =
2018-05-25 22:35 METAR KUNV 260235Z AUTO 00000KT 10SM CLR 23/15 A2990 RMK AO2 T02290154 =
2018-05-25 22:15 METAR KUNV 260215Z AUTO 00000KT 10SM CLR 22/16 A2990 RMK AO2 T02220155 =
2018-05-25 21:53 METAR KUNV 260153Z 00000KT 10SM SKC 22/15 A2989 =
2018-05-25 20:53 METAR KUNV 260053Z 27004KT 10SM SKC 26/15 A2989 =
2018-05-25 19:53 METAR KUNV 252353Z 28005KT 10SM SKC 27/15 A2989 =
2018-05-25 18:53 METAR KUNV 252253Z 28006KT 10SM SKC 29/14 A2988 =
2018-05-25 17:53 METAR KUNV 252153Z 29009G14KT 10SM SCT075 29/14 A2990 =
2018-05-25 16:53 METAR KUNV 252053Z 27008KT 10SM SCT075 29/14 A2991 =
2018-05-25 15:53 METAR KUNV 251953Z 24005KT 10SM SCT070 28/15 A2992 =
2018-05-25 14:53 METAR KUNV 251853Z 22005KT 10SM SCT060 28/17 A2997 =
2018-05-25 13:53 METAR KUNV 251753Z 22005KT 10SM SCT060 28/17 A2997 =
2018-05-25 12:53 METAR KUNV 251653Z COR 20007KT 10SM SCT060 27/15 A2999 =
2018-05-25 11:53 METAR KUNV 251553Z 26008KT 10SM SKC 25/15 A3002 =
2018-05-25 10:53 METAR KUNV 251453Z 19005KT 10SM SKC 24/14 A3005 =
2018-05-25 09:53 METAR KUNV 251353Z 18004KT 10SM SKC 21/13 A3006 =
2018-05-25 08:53 METAR KUNV 251253Z 00000KT 10SM SKC 19/12 A3007 =

Support USWX by starting your Amazon purchase here.